sensor_id;sensor_type;location;lat;lon;timestamp;temperature;humidity
23403;DHT22;11874;48.228;11.684;2023-08-30T08:19:03;15.40;99.90
23403;DHT22;11874;48.228;11.684;2023-08-30T08:21:33;14.40;99.90
23403;DHT22;11874;48.228;11.684;2023-08-30T08:24:02;14.40;99.90
23403;DHT22;11874;48.228;11.684;2023-08-30T08:26:31;14.50;99.90
23403;DHT22;11874;48.228;11.684;2023-08-30T08:28:59;14.50;99.90
23403;DHT22;11874;48.228;11.684;2023-08-30T08:31:27;14.50;99.90
23403;DHT22;11874;48.228;11.684;2023-08-30T08:34:08;14.60;99.90
23403;DHT22;11874;48.228;11.684;2023-08-30T08:36:38;14.60;99.90
23403;DHT22;11874;48.228;11.684;2023-08-30T08:39:07;14.50;99.90
23403;DHT22;11874;48.228;11.684;2023-08-30T08:41:39;14.60;99.90
23403;DHT22;11874;48.228;11.684;2023-08-30T08:44:12;14.70;99.90
23403;DHT22;11874;48.228;11.684;2023-08-30T08:46:43;14.70;99.90
23403;DHT22;11874;48.228;11.684;2023-08-30T08:49:14;14.70;99.90
23403;DHT22;11874;48.228;11.684;2023-08-30T08:51:44;14.70;99.90
23403;DHT22;11874;48.228;11.684;2023-08-30T08:54:12;14.80;99.90
23403;DHT22;11874;48.228;11.684;2023-08-30T08:56:41;14.80;99.90
23403;DHT22;11874;48.228;11.684;2023-08-30T14:05:49;17.60;99.90
23403;DHT22;11874;48.228;11.684;2023-08-30T14:08:17;15.90;99.90
23403;DHT22;11874;48.228;11.684;2023-08-30T14:10:46;15.90;99.90
23403;DHT22;11874;48.228;11.684;2023-08-30T14:13:14;15.90;99.90
23403;DHT22;11874;48.228;11.684;2023-08-30T14:15:42;16.00;99.90
23403;DHT22;11874;48.228;11.684;2023-08-30T14:18:11;15.80;99.90
23403;DHT22;11874;48.228;11.684;2023-08-30T14:20:41;16.00;99.90
23403;DHT22;11874;48.228;11.684;2023-08-30T14:23:10;16.00;99.90
23403;DHT22;11874;48.228;11.684;2023-08-30T14:25:41;16.00;99.90
23403;DHT22;11874;48.228;11.684;2023-08-30T14:28:12;16.00;99.90
23403;DHT22;11874;48.228;11.684;2023-08-30T14:30:42;16.10;99.90
23403;DHT22;11874;48.228;11.684;2023-08-30T14:33:12;16.10;99.90
23403;DHT22;11874;48.228;11.684;2023-08-30T14:35:41;16.10;99.90
23403;DHT22;11874;48.228;11.684;2023-08-30T14:38:11;16.40;99.90
23403;DHT22;11874;48.228;11.684;2023-08-30T14:40:40;16.20;99.90
23403;DHT22;11874;48.228;11.684;2023-08-30T14:43:08;16.40;99.90
23403;DHT22;11874;48.228;11.684;2023-08-30T14:45:36;16.30;99.90
23403;DHT22;11874;48.228;11.684;2023-08-30T16:39:35;17.00;99.90
23403;DHT22;11874;48.228;11.684;2023-08-30T16:42:03;17.00;99.90
23403;DHT22;11874;48.228;11.684;2023-08-30T16:44:32;17.00;99.90
23403;DHT22;11874;48.228;11.684;2023-08-30T16:47:00;17.00;99.90
23403;DHT22;11874;48.228;11.684;2023-08-30T16:49:29;17.00;99.90
23403;DHT22;11874;48.228;11.684;2023-08-30T16:51:57;16.90;99.90
23403;DHT22;11874;48.228;11.684;2023-08-30T16:54:25;16.90;99.90
23403;DHT22;11874;48.228;11.684;2023-08-30T16:56:55;16.90;99.90
23403;DHT22;11874;48.228;11.684;2023-08-30T16:59:24;16.90;99.90
23403;DHT22;11874;48.228;11.684;2023-08-30T17:01:52;16.90;99.90
23403;DHT22;11874;48.228;11.684;2023-08-30T17:04:20;17.00;99.90
23403;DHT22;11874;48.228;11.684;2023-08-30T17:06:48;17.00;99.90
23403;DHT22;11874;48.228;11.684;2023-08-30T17:09:19;17.00;99.90
23403;DHT22;11874;48.228;11.684;2023-08-30T17:11:47;17.10;99.90
23403;DHT22;11874;48.228;11.684;2023-08-30T17:14:17;17.10;99.90
23403;DHT22;11874;48.228;11.684;2023-08-30T17:16:45;17.10;99.90
23403;DHT22;11874;48.228;11.684;2023-08-30T17:19:13;17.20;99.90
23403;DHT22;11874;48.228;11.684;2023-08-30T17:21:41;17.20;99.90
23403;DHT22;11874;48.228;11.684;2023-08-30T17:24:11;17.20;99.90
23403;DHT22;11874;48.228;11.684;2023-08-30T17:26:39;17.20;99.90
23403;DHT22;11874;48.228;11.684;2023-08-30T17:29:09;17.20;99.90
23403;DHT22;11874;48.228;11.684;2023-08-30T17:31:40;17.10;99.90
23403;DHT22;11874;48.228;11.684;2023-08-30T17:34:08;17.10;99.90
23403;DHT22;11874;48.228;11.684;2023-08-30T17:36:41;17.10;99.90
23403;DHT22;11874;48.228;11.684;2023-08-30T17:39:14;17.00;99.90
23403;DHT22;11874;48.228;11.684;2023-08-30T17:41:42;17.00;99.90
23403;DHT22;11874;48.228;11.684;2023-08-30T17:44:11;17.00;99.90
23403;DHT22;11874;48.228;11.684;2023-08-30T20:08:41;15.90;99.90
23403;DHT22;11874;48.228;11.684;2023-08-30T20:11:09;15.90;99.90
23403;DHT22;11874;48.228;11.684;2023-08-30T20:13:37;15.90;99.90
23403;DHT22;11874;48.228;11.684;2023-08-30T20:16:06;15.90;99.90
23403;DHT22;11874;48.228;11.684;2023-08-30T20:18:35;16.00;99.90
23403;DHT22;11874;48.228;11.684;2023-08-30T20:21:04;16.00;99.90
23403;DHT22;11874;48.228;11.684;2023-08-30T20:23:38;16.00;99.90
23403;DHT22;11874;48.228;11.684;2023-08-30T20:26:10;16.00;99.90
23403;DHT22;11874;48.228;11.684;2023-08-30T20:28:39;16.00;99.90
23403;DHT22;11874;48.228;11.684;2023-08-30T20:31:09;16.00;99.90
23403;DHT22;11874;48.228;11.684;2023-08-30T20:33:39;16.10;99.90
23403;DHT22;11874;48.228;11.684;2023-08-30T20:36:08;16.00;99.90
23403;DHT22;11874;48.228;11.684;2023-08-30T20:38:36;16.00;99.90
23403;DHT22;11874;48.228;11.684;2023-08-30T20:41:05;16.00;99.90
23403;DHT22;11874;48.228;11.684;2023-08-30T20:43:35;16.00;99.90
23403;DHT22;11874;48.228;11.684;2023-08-30T20:46:03;16.00;99.90
23403;DHT22;11874;48.228;11.684;2023-08-30T20:48:32;16.00;99.90
23403;DHT22;11874;48.228;11.684;2023-08-30T20:51:01;16.00;99.90
23403;DHT22;11874;48.228;11.684;2023-08-30T20:53:33;16.00;99.90
23403;DHT22;11874;48.228;11.684;2023-08-30T20:56:03;16.00;99.90
23403;DHT22;11874;48.228;11.684;2023-08-30T20:58:35;16.00;99.90
23403;DHT22;11874;48.228;11.684;2023-08-30T21:01:07;16.00;99.90
23403;DHT22;11874;48.228;11.684;2023-08-30T21:03:36;16.00;99.90
23403;DHT22;11874;48.228;11.684;2023-08-30T21:06:06;16.00;99.90
23403;DHT22;11874;48.228;11.684;2023-08-30T21:08:35;16.00;99.90
23403;DHT22;11874;48.228;11.684;2023-08-30T21:11:06;16.00;99.90
23403;DHT22;11874;48.228;11.684;2023-08-30T21:13:35;16.00;99.90
